Fairport, Missouri
Current Conditions -  °F | °C
As of 7:53 AM on Friday 28 Nov 2014 (Local Time) from KSTJ Reporting Station
Clear Clear  
Wind Chill: 26°   Ceiling: Unl
Heat Index: 32°   Visibility: 10mi
Dew Point: 25°   Wind: 7mph
Humidity: 75%   Direction: 170°S
Pressure: 29.98"   Gusts: NA
Location:  39.99°N, 94.35°W
Report Text: KSTJ 281353Z 17006KT 10SM CLR 00/M04 A2998 RMK AO2 SLP160 T00001039
Loading
Personal Weather Stations






























Interactive Weather Map New forecast layout! Learn more

10-Day Weather Forecast

Advertisements
Track Severe Weather on mobile